Terminal Aerodrome Forecast
Issued by NWS

Home | Current Version | Previous Version | Text Only | Print | Product List | Glossary On
Versions: 1 2 3 4 5 6 7 8 9 10 11 12 13 14
000
FTUS43 KSGF 312320
TAFBBG
TAF
KBBG 312320Z 0100/0124 18005KT P6SM VCTS SCT050CB BKN120
     FM010500 VRB03KT P6SM VCTS SCT040CB BKN100
     FM011000 VRB03KT P6SM VCSH BKN030 BKN050
     FM011600 VRB04KT P6SM VCTS BKN040CB BKN090=

USA.gov is the U.S. government's official web portal to all federal, state and local government web resources and services.